Time;durP1;ratioP1;P1;durP2;ratioP2;P2;SDS_P1;SDS_P2;PMS_P1;PMS_P2;Temp;Humidity;BMP_temperature;BMP_pressure;BME280_temperature;BME280_humidity;BME280_pressure;Samples;Min_cycle;Max_cycle;Signal;HPM_P1;HPM_P2
2022/05/18 00:01:51;;;;;;;4.55;4.20;;;;;;;;;;5098906;28;20204;-61
2022/05/18 00:04:18;;;;;;;4.38;4.07;;;;;;;;;;5099243;28;20203;-61
2022/05/18 00:06:46;;;;;;;4.60;4.30;;;;;;;;;;5098739;28;20204;-61
2022/05/18 00:09:14;;;;;;;4.53;4.22;;;;;;;;;;5099392;28;20562;-61
2022/05/18 00:11:43;;;;;;;4.75;4.45;;;;;;;;;;5098323;28;20290;-60
2022/05/18 00:14:12;;;;;;;4.28;3.97;;;;;;;;;;5098337;28;20231;-60
2022/05/18 00:16:40;;;;;;;4.47;4.18;;;;;;;;;;5098726;28;20269;-60
2022/05/18 00:19:08;;;;;;;4.80;4.40;;;;;;;;;;5098363;28;20215;-60
2022/05/18 00:21:36;;;;;;;4.53;4.22;;;;;;;;;;5097602;28;20204;-61
2022/05/18 00:24:04;;;;;;;4.72;4.43;;;;;;;;;;5098709;28;20208;-61
2022/05/18 00:26:32;;;;;;;4.60;4.30;;;;;;;;;;5097993;28;20215;-60
2022/05/18 00:29:01;;;;;;;4.13;3.90;;;;;;;;;;5098535;28;20200;-61
2022/05/18 00:31:28;;;;;;;4.10;3.90;;;;;;;;;;5098261;28;20215;-61
2022/05/18 00:33:56;;;;;;;4.38;4.07;;;;;;;;;;5098269;28;20575;-60
2022/05/18 00:36:24;;;;;;;5.00;4.60;;;;;;;;;;5097987;28;20203;-60
2022/05/18 00:38:51;;;;;;;4.70;4.40;;;;;;;;;;5098350;28;20223;-60
2022/05/18 00:41:19;;;;;;;4.60;4.30;;;;;;;;;;5098176;28;20211;-61
2022/05/18 00:43:47;;;;;;;4.50;4.20;;;;;;;;;;5106860;28;20266;-61
2022/05/18 00:46:17;;;;;;;4.75;4.45;;;;;;;;;;5117578;28;20199;-61
2022/05/18 00:48:45;;;;;;;4.60;4.30;;;;;;;;;;5118515;28;20203;-61
2022/05/18 00:51:15;;;;;;;4.55;4.25;;;;;;;;;;5118188;28;20217;-61
2022/05/18 00:53:44;;;;;;;4.65;4.35;;;;;;;;;;5118346;28;20234;-61
2022/05/18 00:56:14;;;;;;;4.80;4.50;;;;;;;;;;5118064;28;20263;-60
2022/05/18 00:58:44;;;;;;;4.72;4.43;;;;;;;;;;5117945;28;20237;-61
2022/05/18 01:01:12;;;;;;;4.82;4.45;;;;;;;;;;5118240;28;20209;-61
2022/05/18 01:03:44;;;;;;;4.97;4.65;;;;;;;;;;5118213;28;20214;-60
2022/05/18 01:06:15;;;;;;;4.80;4.50;;;;;;;;;;5118320;28;20210;-61
2022/05/18 01:08:46;;;;;;;4.75;4.43;;;;;;;;;;5118080;28;20202;-60
2022/05/18 01:11:13;;;;;;;4.60;4.30;;;;;;;;;;5117808;28;20203;-61
2022/05/18 01:13:42;;;;;;;4.55;4.25;;;;;;;;;;5118384;28;20566;-61
2022/05/18 01:16:09;;;;;;;5.00;4.60;;;;;;;;;;5117848;28;20222;-60
2022/05/18 01:18:38;;;;;;;5.03;4.53;;;;;;;;;;5117973;28;20217;-61
2022/05/18 01:21:07;;;;;;;4.88;4.57;;;;;;;;;;5118380;28;20290;-61
2022/05/18 01:23:42;;;;;;;4.93;4.53;;;;;;;;;;5117809;28;20203;-60
2022/05/18 01:26:16;;;;;;;4.80;4.50;;;;;;;;;;5118262;28;20209;-61
2022/05/18 01:28:49;;;;;;;4.68;4.38;;;;;;;;;;5118580;28;20471;-61
2022/05/18 01:31:17;;;;;;;4.82;4.53;;;;;;;;;;5118248;28;20202;-60
2022/05/18 01:33:44;;;;;;;4.85;4.53;;;;;;;;;;5120591;28;20203;-60
2022/05/18 01:36:12;;;;;;;4.80;4.50;;;;;;;;;;5122407;28;20202;-60
2022/05/18 01:38:41;;;;;;;4.72;4.43;;;;;;;;;;5122362;28;20537;-60
2022/05/18 01:41:11;;;;;;;4.60;4.30;;;;;;;;;;5121697;28;20305;-60
2022/05/18 01:43:40;;;;;;;4.93;4.63;;;;;;;;;;5121330;28;20650;-61
2022/05/18 01:46:12;;;;;;;4.72;4.43;;;;;;;;;;5121492;28;20284;-61
2022/05/18 01:48:41;;;;;;;4.63;4.32;;;;;;;;;;5122121;28;20207;-61
2022/05/18 01:51:11;;;;;;;4.82;4.53;;;;;;;;;;5121487;28;20579;-61
2022/05/18 01:53:39;;;;;;;4.70;4.40;;;;;;;;;;5121866;28;20211;-61
2022/05/18 01:56:08;;;;;;;4.70;4.40;;;;;;;;;;5121523;28;20210;-60
2022/05/18 01:58:36;;;;;;;4.55;4.25;;;;;;;;;;5122021;28;20305;-61
2022/05/18 02:01:04;;;;;;;4.90;4.60;;;;;;;;;;5121361;28;20633;-60
2022/05/18 02:03:33;;;;;;;4.85;4.55;;;;;;;;;;5121659;28;20204;-61
2022/05/18 02:06:01;;;;;;;4.65;4.35;;;;;;;;;;5120865;28;20203;-60
2022/05/18 02:08:29;;;;;;;4.93;4.60;;;;;;;;;;5121113;28;20203;-61
2022/05/18 02:10:57;;;;;;;5.03;4.72;;;;;;;;;;5120890;28;20263;-61
2022/05/18 02:13:25;;;;;;;4.65;4.35;;;;;;;;;;5120789;28;20307;-61
2022/05/18 02:15:52;;;;;;;5.13;4.72;;;;;;;;;;5120757;28;20213;-61
2022/05/18 02:18:20;;;;;;;4.88;4.57;;;;;;;;;;5121176;28;20199;-61
2022/05/18 02:20:50;;;;;;;4.47;4.18;;;;;;;;;;5120774;28;20238;-61
2022/05/18 02:23:18;;;;;;;4.70;4.40;;;;;;;;;;5121364;28;20211;-60
2022/05/18 02:25:46;;;;;;;4.70;4.40;;;;;;;;;;5121021;28;20206;-61
2022/05/18 02:28:13;;;;;;;5.40;5.10;;;;;;;;;;5120695;28;20502;-61
2022/05/18 02:30:41;;;;;;;4.90;4.60;;;;;;;;;;5120935;28;20209;-61
2022/05/18 02:33:09;;;;;;;4.80;4.50;;;;;;;;;;5120309;28;20211;-61
2022/05/18 02:35:40;;;;;;;7.05;4.82;;;;;;;;;;5119557;28;20210;-61
2022/05/18 02:38:10;;;;;;;5.20;4.90;;;;;;;;;;5120816;28;20213;-61
2022/05/18 02:40:38;;;;;;;4.93;4.63;;;;;;;;;;5120857;28;20625;-62
2022/05/18 02:43:05;;;;;;;4.80;4.50;;;;;;;;;;5120284;28;20203;-61
2022/05/18 02:45:33;;;;;;;5.10;4.80;;;;;;;;;;5119443;28;20213;-60
2022/05/18 02:48:00;;;;;;;5.00;4.70;;;;;;;;;;5120488;28;20582;-60
2022/05/18 02:50:28;;;;;;;4.93;4.63;;;;;;;;;;5120432;28;20199;-61
2022/05/18 02:52:56;;;;;;;5.03;4.72;;;;;;;;;;5120224;28;20209;-61
2022/05/18 02:58:10;;;;;;;5.03;4.63;;;;;;;;;;5120512;28;20275;-60
2022/05/18 03:00:38;;;;;;;5.00;4.70;;;;;;;;;;5120300;28;20313;-60
2022/05/18 03:03:05;;;;;;;5.47;5.07;;;;;;;;;;5119659;28;20210;-60
2022/05/18 03:05:33;;;;;;;5.18;4.72;;;;;;;;;;5120833;28;20207;-61
2022/05/18 03:08:00;;;;;;;5.10;4.70;;;;;;;;;;5120787;28;20212;-60
2022/05/18 03:10:29;;;;;;;4.95;4.65;;;;;;;;;;5120208;28;20260;-61
2022/05/18 03:12:57;;;;;;;5.25;4.95;;;;;;;;;;5120189;28;20203;-60
2022/05/18 03:15:24;;;;;;;5.20;4.90;;;;;;;;;;5120403;28;20203;-60
2022/05/18 03:17:53;;;;;;;5.25;4.85;;;;;;;;;;5120035;28;20545;-61
2022/05/18 03:25:48;;;;;;;5.30;5.00;;;;;;;;;;5106704;28;20312;-60
2022/05/18 03:28:16;;;;;;;5.15;4.85;;;;;;;;;;5119937;28;20207;-60
2022/05/18 03:30:43;;;;;;;5.00;4.70;;;;;;;;;;5115101;28;20204;-60
2022/05/18 03:33:11;;;;;;;5.18;4.82;;;;;;;;;;5114472;28;20237;-60
2022/05/18 03:35:38;;;;;;;5.00;4.70;;;;;;;;;;5119262;28;20210;-60
2022/05/18 03:38:06;;;;;;;5.15;4.85;;;;;;;;;;5119548;28;20217;-60
2022/05/18 03:40:36;;;;;;;5.70;5.30;;;;;;;;;;5119250;28;20227;-60
2022/05/18 03:43:06;;;;;;;5.30;5.00;;;;;;;;;;5119106;28;20211;-60
2022/05/18 03:45:34;;;;;;;4.95;4.65;;;;;;;;;;5119502;28;20581;-60
2022/05/18 03:48:03;;;;;;;5.05;4.75;;;;;;;;;;5119217;28;20195;-60
2022/05/18 03:50:31;;;;;;;5.20;4.80;;;;;;;;;;5118621;28;20245;-60
2022/05/18 03:53:00;;;;;;;4.88;4.57;;;;;;;;;;5118601;28;20207;-61
2022/05/18 03:55:28;;;;;;;5.03;4.72;;;;;;;;;;5118619;28;20263;-60
2022/05/18 03:57:55;;;;;;;5.20;4.90;;;;;;;;;;5118958;28;20198;-60
2022/05/18 04:00:25;;;;;;;5.28;4.97;;;;;;;;;;5118756;28;20227;-60
2022/05/18 04:02:52;;;;;;;5.65;5.25;;;;;;;;;;5118928;28;20287;-60
2022/05/18 04:05:21;;;;;;;5.05;4.75;;;;;;;;;;5118705;28;20203;-60
2022/05/18 04:07:49;;;;;;;5.15;4.85;;;;;;;;;;5118288;28;20203;-60
2022/05/18 04:10:16;;;;;;;5.28;4.97;;;;;;;;;;5117806;28;20506;-60
2022/05/18 04:12:44;;;;;;;5.25;4.95;;;;;;;;;;5117950;28;20211;-60
2022/05/18 04:15:16;;;;;;;5.18;4.78;;;;;;;;;;5117656;28;20199;-61
2022/05/18 04:17:45;;;;;;;4.93;4.63;;;;;;;;;;5118253;28;20203;-60
2022/05/18 04:20:13;;;;;;;4.90;4.60;;;;;;;;;;5117944;28;20288;-61
2022/05/18 04:22:42;;;;;;;5.25;4.95;;;;;;;;;;5117421;28;20207;-60
2022/05/18 04:25:10;;;;;;;5.63;5.32;;;;;;;;;;5117343;28;20208;-60
2022/05/18 04:27:37;;;;;;;5.03;4.57;;;;;;;;;;5117440;28;20207;-60
2022/05/18 04:30:05;;;;;;;5.72;5.30;;;;;;;;;;5117471;28;20206;-60
2022/05/18 04:32:33;;;;;;;6.35;5.85;;;;;;;;;;5116923;28;20218;-61
2022/05/18 04:35:02;;;;;;;5.80;5.40;;;;;;;;;;5117568;28;20301;-60
2022/05/18 04:37:30;;;;;;;5.75;5.30;;;;;;;;;;5116868;28;20224;-60
2022/05/18 04:39:57;;;;;;;5.90;5.50;;;;;;;;;;5116411;28;20203;-60
2022/05/18 04:42:25;;;;;;;6.10;5.60;;;;;;;;;;5116497;28;20281;-61
2022/05/18 04:44:52;;;;;;;5.95;5.55;;;;;;;;;;5116778;28;20686;-60
2022/05/18 04:47:22;;;;;;;5.53;5.20;;;;;;;;;;5116275;28;20570;-60
2022/05/18 04:49:50;;;;;;;6.20;5.70;;;;;;;;;;5115631;28;20462;-61
2022/05/18 04:52:19;;;;;;;6.18;5.63;;;;;;;;;;5116054;28;20597;-61
2022/05/18 04:54:47;;;;;;;5.90;5.50;;;;;;;;;;5115160;28;20225;-60
2022/05/18 04:57:15;;;;;;;6.03;5.53;;;;;;;;;;5115852;28;20605;-61
2022/05/18 04:59:43;;;;;;;5.78;5.30;;;;;;;;;;5116187;28;20211;-60
2022/05/18 05:02:10;;;;;;;5.82;5.43;;;;;;;;;;5115306;28;20258;-61
2022/05/18 05:04:38;;;;;;;6.13;5.72;;;;;;;;;;5114834;28;20301;-61
2022/05/18 05:07:06;;;;;;;5.75;5.35;;;;;;;;;;5114403;28;20228;-60
2022/05/18 05:09:37;;;;;;;6.00;5.60;;;;;;;;;;5114105;28;20194;-60
2022/05/18 05:12:05;;;;;;;6.07;5.68;;;;;;;;;;5114966;28;20285;-60
2022/05/18 05:14:34;;;;;;;6.18;5.78;;;;;;;;;;5115361;28;20605;-62
2022/05/18 05:17:02;;;;;;;6.43;6.03;;;;;;;;;;5114530;28;20790;-60
2022/05/18 05:19:30;;;;;;;5.93;5.50;;;;;;;;;;5113356;28;20286;-60
2022/05/18 05:21:57;;;;;;;6.15;5.65;;;;;;;;;;5114537;28;20234;-61
2022/05/18 05:24:25;;;;;;;5.68;5.28;;;;;;;;;;5114425;28;20195;-60
2022/05/18 05:26:54;;;;;;;6.10;5.70;;;;;;;;;;5115449;28;20455;-60
2022/05/18 05:29:24;;;;;;;6.03;5.63;;;;;;;;;;5113120;28;20203;-60
2022/05/18 05:31:54;;;;;;;6.55;6.07;;;;;;;;;;5114525;28;20592;-61
2022/05/18 05:34:22;;;;;;;5.22;4.93;;;;;;;;;;5114774;28;20206;-61
2022/05/18 05:36:50;;;;;;;5.78;5.32;;;;;;;;;;5114760;28;20207;-60
2022/05/18 05:39:20;;;;;;;5.68;5.32;;;;;;;;;;5116006;28;20199;-61
2022/05/18 05:41:47;;;;;;;6.40;5.97;;;;;;;;;;5115364;28;20291;-61
2022/05/18 05:44:16;;;;;;;6.50;6.00;;;;;;;;;;5114455;28;20816;-60
2022/05/18 05:46:44;;;;;;;6.55;6.15;;;;;;;;;;5115291;28;20535;-60
2022/05/18 05:49:12;;;;;;;5.75;5.35;;;;;;;;;;5114711;28;20203;-60
2022/05/18 05:51:40;;;;;;;6.50;6.00;;;;;;;;;;5114943;28;20252;-60
2022/05/18 05:54:08;;;;;;;6.38;5.90;;;;;;;;;;5114272;28;20228;-60
2022/05/18 05:56:36;;;;;;;6.63;6.13;;;;;;;;;;5114589;28;20249;-60
2022/05/18 05:59:03;;;;;;;5.03;4.72;;;;;;;;;;5113328;28;20234;-60
2022/05/18 06:01:32;;;;;;;5.65;5.35;;;;;;;;;;5113654;28;20605;-61
2022/05/18 06:04:00;;;;;;;5.13;4.72;;;;;;;;;;5114114;28;20203;-60
2022/05/18 06:06:28;;;;;;;5.30;4.80;;;;;;;;;;5113858;28;20202;-60
2022/05/18 06:08:56;;;;;;;5.53;5.13;;;;;;;;;;5114830;28;20203;-60
2022/05/18 06:11:25;;;;;;;5.07;4.70;;;;;;;;;;5112228;28;20183;-60
2022/05/18 06:13:53;;;;;;;6.90;6.40;;;;;;;;;;5112948;28;20203;-60
2022/05/18 06:16:20;;;;;;;7.32;6.72;;;;;;;;;;5114296;28;20206;-60
2022/05/18 06:18:49;;;;;;;7.90;7.30;;;;;;;;;;5114218;28;20575;-60
2022/05/18 06:21:17;;;;;;;7.75;7.05;;;;;;;;;;5117083;28;20233;-60
2022/05/18 06:23:45;;;;;;;7.70;7.10;;;;;;;;;;5117403;28;20210;-60
2022/05/18 06:26:12;;;;;;;7.20;6.63;;;;;;;;;;5118152;28;20601;-60
2022/05/18 06:28:41;;;;;;;8.07;7.45;;;;;;;;;;5116933;28;20227;-61
2022/05/18 06:31:08;;;;;;;6.82;6.32;;;;;;;;;;5116048;28;20274;-60
2022/05/18 06:33:36;;;;;;;6.18;5.68;;;;;;;;;;5117717;28;20587;-60
2022/05/18 06:36:05;;;;;;;7.55;6.85;;;;;;;;;;5118116;28;20203;-60
2022/05/18 06:38:32;;;;;;;7.45;6.85;;;;;;;;;;5117921;28;20203;-60
2022/05/18 06:43:44;;;;;;;6.55;6.15;;;;;;;;;;5117567;28;20230;-59
2022/05/18 06:46:12;;;;;;;7.00;6.50;;;;;;;;;;5116416;28;20213;-60
2022/05/18 06:48:41;;;;;;;7.68;7.07;;;;;;;;;;5116736;28;20202;-60
2022/05/18 06:51:10;;;;;;;7.68;7.18;;;;;;;;;;5117792;28;20298;-60
2022/05/18 06:53:39;;;;;;;8.05;7.45;;;;;;;;;;5117816;28;20218;-60
2022/05/18 06:56:06;;;;;;;8.40;7.78;;;;;;;;;;5116430;28;20203;-60
2022/05/18 06:58:33;;;;;;;8.00;7.40;;;;;;;;;;5117091;28;20202;-60
2022/05/18 07:01:01;;;;;;;6.75;6.25;;;;;;;;;;5117975;28;20214;-60
2022/05/18 07:03:29;;;;;;;7.88;7.28;;;;;;;;;;5117158;28;20268;-60
2022/05/18 07:05:56;;;;;;;6.50;6.00;;;;;;;;;;5117565;28;20589;-60
2022/05/18 07:08:25;;;;;;;6.95;6.35;;;;;;;;;;5116872;28;20736;-59
2022/05/18 07:10:52;;;;;;;6.20;5.80;;;;;;;;;;5116604;28;20640;-60
2022/05/18 07:13:20;;;;;;;6.47;5.97;;;;;;;;;;5116808;28;20195;-60
2022/05/18 07:15:47;;;;;;;6.22;5.78;;;;;;;;;;5117383;28;20221;-60
2022/05/18 07:18:15;;;;;;;7.10;6.50;;;;;;;;;;5117332;28;20586;-59
2022/05/18 07:20:43;;;;;;;7.57;6.93;;;;;;;;;;5117517;28;20487;-60
2022/05/18 07:23:10;;;;;;;8.35;7.60;;;;;;;;;;5115968;28;20199;-60
2022/05/18 07:25:39;;;;;;;7.53;6.90;;;;;;;;;;5116272;28;20647;-60
2022/05/18 07:28:07;;;;;;;8.05;7.40;;;;;;;;;;5116300;28;20198;-60
2022/05/18 07:30:34;;;;;;;8.68;8.07;;;;;;;;;;5115411;28;20194;-60
2022/05/18 07:33:02;;;;;;;8.85;8.15;;;;;;;;;;5116230;28;20199;-60
2022/05/18 07:35:29;;;;;;;6.75;6.25;;;;;;;;;;5116692;28;20680;-60
2022/05/18 07:37:57;;;;;;;8.10;7.43;;;;;;;;;;5115903;28;20282;-60
2022/05/18 07:40:25;;;;;;;8.57;7.97;;;;;;;;;;5116011;28;20209;-60
2022/05/18 07:42:56;;;;;;;8.75;8.05;;;;;;;;;;5115665;28;20238;-60
2022/05/18 07:45:24;;;;;;;7.25;6.68;;;;;;;;;;5115403;28;20230;-60
2022/05/18 07:47:52;;;;;;;8.70;8.00;;;;;;;;;;5116023;28;20213;-60
2022/05/18 07:50:19;;;;;;;7.97;7.38;;;;;;;;;;5116109;28;20566;-60
2022/05/18 07:52:47;;;;;;;8.25;7.55;;;;;;;;;;5115518;28;20496;-60
2022/05/18 07:55:14;;;;;;;8.25;7.55;;;;;;;;;;5115230;28;20706;-60
2022/05/18 07:57:42;;;;;;;8.38;7.68;;;;;;;;;;5115743;28;20209;-60
2022/05/18 08:00:12;;;;;;;7.65;7.10;;;;;;;;;;5116874;28;20625;-60
2022/05/18 08:02:40;;;;;;;8.57;7.75;;;;;;;;;;5116287;28;20222;-60
2022/05/18 08:05:07;;;;;;;7.82;7.22;;;;;;;;;;5115752;28;20658;-60
2022/05/18 08:07:36;;;;;;;7.95;7.35;;;;;;;;;;5116312;28;20198;-60
2022/05/18 08:15:35;;;;;;;7.78;7.20;;;;;;;;;;5116000;28;20190;-60
2022/05/18 08:18:02;;;;;;;7.50;6.90;;;;;;;;;;5115405;28;20198;-60
2022/05/18 08:20:30;;;;;;;8.27;7.57;;;;;;;;;;5115872;28;20194;-60
2022/05/18 08:22:57;;;;;;;6.97;6.47;;;;;;;;;;5115757;28;20223;-60
2022/05/18 08:25:25;;;;;;;7.07;6.57;;;;;;;;;;5115870;28;20209;-60
2022/05/18 08:27:52;;;;;;;6.65;6.15;;;;;;;;;;5115400;28;20195;-60
2022/05/18 08:30:21;;;;;;;7.35;6.35;;;;;;;;;;5115037;28;20203;-61
2022/05/18 08:32:50;;;;;;;6.80;6.30;;;;;;;;;;5116390;28;20198;-60
2022/05/18 08:35:18;;;;;;;6.70;6.10;;;;;;;;;;5115430;28;20253;-60
2022/05/18 08:37:46;;;;;;;6.13;5.68;;;;;;;;;;5114709;28;20199;-60
2022/05/18 08:40:17;;;;;;;6.60;6.10;;;;;;;;;;5115163;28;20238;-60
2022/05/18 08:42:44;;;;;;;6.03;5.63;;;;;;;;;;5097502;28;20227;-60
2022/05/18 08:45:11;;;;;;;7.15;5.47;;;;;;;;;;5114374;28;20237;-60
2022/05/18 08:47:42;;;;;;;6.13;5.55;;;;;;;;;;5113915;28;20401;-60
2022/05/18 08:50:12;;;;;;;5.57;5.18;;;;;;;;;;5114778;28;20210;-60
2022/05/18 08:52:43;;;;;;;5.85;5.35;;;;;;;;;;5114644;28;20207;-60
2022/05/18 08:55:17;;;;;;;5.80;5.30;;;;;;;;;;5114615;28;20194;-60
2022/05/18 08:57:45;;;;;;;5.05;4.68;;;;;;;;;;5115084;28;20582;-60
2022/05/18 09:00:15;;;;;;;4.97;4.47;;;;;;;;;;5115415;28;20249;-59
2022/05/18 09:02:43;;;;;;;5.47;4.97;;;;;;;;;;5114330;28;20231;-58
2022/05/18 09:05:14;;;;;;;5.70;5.20;;;;;;;;;;5114798;28;20199;-58
2022/05/18 09:07:45;;;;;;;5.30;4.88;;;;;;;;;;5114724;28;20195;-58
2022/05/18 09:10:19;;;;;;;5.50;5.00;;;;;;;;;;5115567;28;20286;-60
2022/05/18 09:12:48;;;;;;;5.50;5.00;;;;;;;;;;5114188;28;20194;-60
2022/05/18 09:15:17;;;;;;;5.07;4.63;;;;;;;;;;5114838;28;20203;-60
2022/05/18 09:17:49;;;;;;;5.28;4.75;;;;;;;;;;5114619;28;20228;-60
2022/05/18 09:20:22;;;;;;;4.82;4.25;;;;;;;;;;5114701;28;20210;-60
2022/05/18 09:22:58;;;;;;;5.10;4.70;;;;;;;;;;5114355;28;20322;-60
2022/05/18 09:25:36;;;;;;;4.82;4.43;;;;;;;;;;5115055;28;20566;-60
2022/05/18 09:28:11;;;;;;;4.35;4.05;;;;;;;;;;5115024;28;20225;-60
2022/05/18 09:30:41;;;;;;;4.55;4.25;;;;;;;;;;5115268;28;20210;-60
2022/05/18 09:33:20;;;;;;;4.30;4.00;;;;;;;;;;5114296;28;20199;-60
2022/05/18 09:35:54;;;;;;;4.10;3.80;;;;;;;;;;5114898;28;20195;-60
2022/05/18 09:38:24;;;;;;;4.22;3.83;;;;;;;;;;5114787;28;20503;-60
2022/05/18 09:40:52;;;;;;;5.38;4.22;;;;;;;;;;5114216;28;20563;-60
2022/05/18 09:43:22;;;;;;;4.60;4.20;;;;;;;;;;5113853;28;20241;-60
2022/05/18 09:45:51;;;;;;;4.72;4.32;;;;;;;;;;5113598;28;20202;-60
2022/05/18 09:48:22;;;;;;;4.05;3.70;;;;;;;;;;5114049;28;20463;-60
2022/05/18 09:50:52;;;;;;;4.05;3.75;;;;;;;;;;5114422;28;20502;-60
2022/05/18 09:53:20;;;;;;;3.58;3.28;;;;;;;;;;5114581;28;20199;-60
2022/05/18 09:55:49;;;;;;;3.78;3.47;;;;;;;;;;5117988;28;20207;-60
2022/05/18 09:58:19;;;;;;;4.10;3.80;;;;;;;;;;5117420;28;20279;-60
2022/05/18 10:00:46;;;;;;;3.78;3.47;;;;;;;;;;5117549;28;20211;-60
2022/05/18 10:08:48;;;;;;;3.88;3.58;;;;;;;;;;5117428;28;20198;-60
2022/05/18 10:11:17;;;;;;;3.65;3.30;;;;;;;;;;5117297;28;20203;-60
2022/05/18 10:13:54;;;;;;;4.00;3.70;;;;;;;;;;5118015;28;20202;-60
2022/05/18 10:16:23;;;;;;;4.22;3.35;;;;;;;;;;5117588;28;20690;-60
2022/05/18 10:18:51;;;;;;;3.83;3.53;;;;;;;;;;5117637;28;20199;-60
2022/05/18 10:21:26;;;;;;;4.07;3.67;;;;;;;;;;5116633;28;20203;-60
2022/05/18 10:23:57;;;;;;;3.60;3.30;;;;;;;;;;5116825;28;20205;-60
2022/05/18 10:26:27;;;;;;;3.60;3.30;;;;;;;;;;5116884;28;20230;-60
2022/05/18 10:28:56;;;;;;;3.95;3.53;;;;;;;;;;5116317;28;20195;-60
2022/05/18 10:31:27;;;;;;;3.53;3.22;;;;;;;;;;5116509;28;20207;-60
2022/05/18 10:34:08;;;;;;;3.70;3.40;;;;;;;;;;5117092;28;20213;-60
2022/05/18 10:36:42;;;;;;;4.35;3.95;;;;;;;;;;5116238;28;20190;-60
2022/05/18 10:39:09;;;;;;;4.20;3.80;;;;;;;;;;5116830;28;20275;-60
2022/05/18 10:41:41;;;;;;;4.40;4.00;;;;;;;;;;5116806;28;20224;-60
2022/05/18 10:44:14;;;;;;;4.40;4.00;;;;;;;;;;5116764;28;20242;-60
2022/05/18 10:46:42;;;;;;;4.07;3.65;;;;;;;;;;5115886;28;20199;-60
2022/05/18 10:49:13;;;;;;;3.85;3.50;;;;;;;;;;5116161;28;20217;-60
2022/05/18 10:51:45;;;;;;;4.20;3.90;;;;;;;;;;5116053;28;20221;-60
2022/05/18 10:54:17;;;;;;;3.97;3.67;;;;;;;;;;5116431;28;20199;-60
2022/05/18 10:56:46;;;;;;;3.47;3.15;;;;;;;;;;5116515;28;20593;-60
2022/05/18 10:59:18;;;;;;;3.75;3.45;;;;;;;;;;5117322;28;20614;-60
2022/05/18 11:01:48;;;;;;;3.80;3.50;;;;;;;;;;5116108;28;20302;-60
2022/05/18 11:04:18;;;;;;;4.18;3.55;;;;;;;;;;5115071;28;20205;-60
2022/05/18 11:06:47;;;;;;;4.40;4.00;;;;;;;;;;5115213;28;20206;-60
2022/05/18 11:09:19;;;;;;;4.10;3.80;;;;;;;;;;5115828;28;20209;-60
2022/05/18 11:11:51;;;;;;;4.00;3.70;;;;;;;;;;5114757;28;20195;-59
2022/05/18 11:14:23;;;;;;;4.07;3.78;;;;;;;;;;5116069;28;20500;-60
2022/05/18 11:16:55;;;;;;;4.03;3.72;;;;;;;;;;5116240;28;20207;-60
2022/05/18 11:19:37;;;;;;;3.50;3.20;;;;;;;;;;5114727;28;20516;-60
2022/05/18 11:22:19;;;;;;;3.70;3.35;;;;;;;;;;5115319;28;20199;-60
2022/05/18 11:24:48;;;;;;;3.75;3.45;;;;;;;;;;5114820;28;20199;-60
2022/05/18 11:27:25;;;;;;;3.60;3.30;;;;;;;;;;5114576;28;20211;-60
2022/05/18 11:29:56;;;;;;;3.70;3.40;;;;;;;;;;5115086;28;20199;-60
2022/05/18 11:32:30;;;;;;;3.30;3.00;;;;;;;;;;5114251;28;20191;-61
2022/05/18 11:35:03;;;;;;;3.63;3.33;;;;;;;;;;5115066;28;20537;-60
2022/05/18 11:37:44;;;;;;;3.50;3.20;;;;;;;;;;5114267;28;20214;-60
2022/05/18 11:40:16;;;;;;;3.60;3.33;;;;;;;;;;5115697;28;20462;-60
2022/05/18 11:42:47;;;;;;;4.05;3.75;;;;;;;;;;5114942;28;20222;-60
2022/05/18 11:45:20;;;;;;;3.95;3.63;;;;;;;;;;5114839;28;20209;-60
2022/05/18 11:47:55;;;;;;;4.07;3.67;;;;;;;;;;5114445;28;20233;-60
2022/05/18 11:50:26;;;;;;;4.03;3.72;;;;;;;;;;5113823;28;20214;-60
2022/05/18 11:53:03;;;;;;;3.97;3.67;;;;;;;;;;5107764;28;20206;-60
2022/05/18 11:55:35;;;;;;;3.72;3.42;;;;;;;;;;5115218;28;20205;-60
2022/05/18 11:58:08;;;;;;;3.80;3.50;;;;;;;;;;5114399;28;20236;-60
2022/05/18 12:00:46;;;;;;;3.63;3.38;;;;;;;;;;5113868;28;20195;-60
2022/05/18 12:03:28;;;;;;;4.13;3.83;;;;;;;;;;5114066;28;20313;-60
2022/05/18 12:06:00;;;;;;;4.10;3.50;;;;;;;;;;5113716;28;20613;-60
2022/05/18 12:08:44;;;;;;;3.45;3.25;;;;;;;;;;5113955;28;20763;-60
2022/05/18 12:11:16;;;;;;;3.60;3.30;;;;;;;;;;5113077;28;20635;-60
2022/05/18 12:13:50;;;;;;;3.88;3.45;;;;;;;;;;5113349;28;20199;-60
2022/05/18 12:16:22;;;;;;;3.38;3.17;;;;;;;;;;5113080;28;20198;-60
2022/05/18 12:18:52;;;;;;;3.80;3.50;;;;;;;;;;5104100;28;20211;-60
2022/05/18 12:21:24;;;;;;;4.18;3.50;;;;;;;;;;5107403;28;20203;-60
2022/05/18 12:23:57;;;;;;;3.53;3.22;;;;;;;;;;5113911;28;20804;-60
2022/05/18 12:26:26;;;;;;;3.33;3.03;;;;;;;;;;5113319;28;20195;-60
2022/05/18 12:28:54;;;;;;;3.78;3.47;;;;;;;;;;5113272;28;20226;-60
2022/05/18 12:31:21;;;;;;;3.78;3.47;;;;;;;;;;5113817;28;20207;-60
2022/05/18 12:33:57;;;;;;;3.33;3.13;;;;;;;;;;5113136;28;20195;-60
2022/05/18 12:36:25;;;;;;;3.60;3.30;;;;;;;;;;5113601;28;20213;-60
2022/05/18 12:38:56;;;;;;;3.33;3.13;;;;;;;;;;5112288;28;20206;-60
2022/05/18 12:41:26;;;;;;;3.70;3.30;;;;;;;;;;5112917;28;20199;-60
2022/05/18 12:44:02;;;;;;;3.97;3.67;;;;;;;;;;5113243;28;20239;-60
2022/05/18 12:46:34;;;;;;;3.55;3.25;;;;;;;;;;5113104;28;20199;-60
2022/05/18 12:49:02;;;;;;;4.00;3.45;;;;;;;;;;5113000;28;20199;-60
2022/05/18 12:51:37;;;;;;;3.63;3.35;;;;;;;;;;5114272;28;20620;-60
2022/05/18 12:54:21;;;;;;;3.63;3.42;;;;;;;;;;5114056;28;20195;-60
2022/05/18 12:56:53;;;;;;;3.55;3.20;;;;;;;;;;5113896;28;20199;-60
2022/05/18 12:59:22;;;;;;;3.45;3.15;;;;;;;;;;5114152;28;20198;-60
2022/05/18 13:01:52;;;;;;;4.07;3.13;;;;;;;;;;5113511;28;20203;-61
2022/05/18 13:04:38;;;;;;;3.42;3.20;;;;;;;;;;5113549;28;20287;-60
2022/05/18 13:07:20;;;;;;;4.03;3.55;;;;;;;;;;5113053;28;20242;-60
2022/05/18 13:09:49;;;;;;;3.72;3.30;;;;;;;;;;5112982;28;20194;-60
2022/05/18 13:12:39;;;;;;;3.30;3.10;;;;;;;;;;5112314;28;20223;-60
2022/05/18 13:15:16;;;;;;;3.67;3.40;;;;;;;;;;5113262;28;20775;-60
2022/05/18 13:17:49;;;;;;;3.95;3.10;;;;;;;;;;5113067;28;20203;-60
2022/05/18 13:20:30;;;;;;;3.30;3.10;;;;;;;;;;5112127;28;20642;-60
2022/05/18 13:23:00;;;;;;;3.00;2.80;;;;;;;;;;5113084;28;20525;-62
2022/05/18 13:25:30;;;;;;;3.90;3.05;;;;;;;;;;5112879;28;20288;-62
2022/05/18 13:27:58;;;;;;;3.60;3.30;;;;;;;;;;5112935;28;20594;-62
2022/05/18 13:30:32;;;;;;;3.30;3.00;;;;;;;;;;5117043;28;20199;-62
2022/05/18 13:33:00;;;;;;;3.50;3.20;;;;;;;;;;5117647;28;20518;-60
2022/05/18 13:35:28;;;;;;;3.13;2.92;;;;;;;;;;5116747;28;20199;-61
2022/05/18 13:38:02;;;;;;;3.90;3.20;;;;;;;;;;5117052;28;20199;-59
2022/05/18 13:40:31;;;;;;;3.67;3.10;;;;;;;;;;5117564;28;20259;-60
2022/05/18 13:43:00;;;;;;;3.17;2.88;;;;;;;;;;5116691;28;20223;-60
2022/05/18 13:45:28;;;;;;;3.53;2.88;;;;;;;;;;5116870;28;20717;-60
2022/05/18 13:47:55;;;;;;;3.72;3.22;;;;;;;;;;5116713;28;20187;-60
2022/05/18 13:50:28;;;;;;;3.20;3.00;;;;;;;;;;5116390;28;20770;-60
2022/05/18 13:52:57;;;;;;;3.15;2.90;;;;;;;;;;5117341;28;20199;-60
2022/05/18 13:55:25;;;;;;;3.03;2.58;;;;;;;;;;5116470;28;20195;-62
2022/05/18 13:57:56;;;;;;;3.10;2.80;;;;;;;;;;5116983;28;20199;-63
2022/05/18 14:00:27;;;;;;;3.78;2.67;;;;;;;;;;5117281;28;20209;-59
2022/05/18 14:02:55;;;;;;;2.90;2.70;;;;;;;;;;5116789;28;20203;-62
2022/05/18 14:05:23;;;;;;;3.25;2.90;;;;;;;;;;5115935;28;20225;-62
2022/05/18 14:07:52;;;;;;;3.13;2.85;;;;;;;;;;5116489;28;20211;-59
2022/05/18 14:10:22;;;;;;;3.20;2.90;;;;;;;;;;5116019;28;20203;-62
2022/05/18 14:12:49;;;;;;;3.13;2.90;;;;;;;;;;5116523;28;20451;-62
2022/05/18 14:15:20;;;;;;;3.85;3.15;;;;;;;;;;5116846;28;20233;-62
2022/05/18 14:17:47;;;;;;;3.05;2.80;;;;;;;;;;5116414;28;20214;-62
2022/05/18 14:20:19;;;;;;;3.45;3.00;;;;;;;;;;5117042;28;20687;-60
2022/05/18 14:22:49;;;;;;;3.30;3.00;;;;;;;;;;5116601;28;20218;-62
2022/05/18 14:25:17;;;;;;;3.35;2.97;;;;;;;;;;5116430;28;20194;-62
2022/05/18 14:27:48;;;;;;;3.03;2.78;;;;;;;;;;5115714;28;20199;-62
2022/05/18 14:30:17;;;;;;;3.22;2.95;;;;;;;;;;5115831;28;20202;-62
2022/05/18 14:32:48;;;;;;;3.47;3.17;;;;;;;;;;5116848;28;20297;-62
2022/05/18 14:35:17;;;;;;;3.10;2.90;;;;;;;;;;5116107;28;20203;-62
2022/05/18 14:37:48;;;;;;;3.17;2.90;;;;;;;;;;5115626;28;20608;-62
2022/05/18 14:40:17;;;;;;;2.97;2.78;;;;;;;;;;5115451;28;20478;-62
2022/05/18 14:42:47;;;;;;;3.10;2.80;;;;;;;;;;5115418;28;20202;-62
2022/05/18 14:45:21;;;;;;;3.33;3.00;;;;;;;;;;5115318;28;20699;-61
2022/05/18 14:47:51;;;;;;;2.95;2.75;;;;;;;;;;5115436;28;20198;-60
2022/05/18 14:50:21;;;;;;;3.50;3.20;;;;;;;;;;5115881;28;20211;-60
2022/05/18 14:52:52;;;;;;;3.33;3.03;;;;;;;;;;5116133;28;20569;-61
2022/05/18 14:55:25;;;;;;;3.10;2.90;;;;;;;;;;5114618;28;20191;-61
2022/05/18 14:57:52;;;;;;;2.72;2.53;;;;;;;;;;5115563;28;20206;-62
2022/05/18 15:00:22;;;;;;;2.85;2.65;;;;;;;;;;5116175;28;20199;-62
2022/05/18 15:02:55;;;;;;;3.10;2.90;;;;;;;;;;5115987;28;20198;-62
2022/05/18 15:05:24;;;;;;;3.08;2.78;;;;;;;;;;5115219;28;20307;-62
2022/05/18 15:07:54;;;;;;;3.30;3.00;;;;;;;;;;5116084;28;20259;-62
2022/05/18 15:10:24;;;;;;;2.95;2.75;;;;;;;;;;5115788;28;20191;-62
2022/05/18 15:12:55;;;;;;;3.03;2.83;;;;;;;;;;5116117;28;20205;-60
2022/05/18 15:15:25;;;;;;;3.10;2.90;;;;;;;;;;5116353;28;20541;-62
2022/05/18 15:17:57;;;;;;;3.05;2.72;;;;;;;;;;5114495;28;20198;-62
2022/05/18 15:20:26;;;;;;;3.38;3.08;;;;;;;;;;5115154;28;20194;-61